Weatherford, OK

10:38 PM CST on December 21, 2014 (GMT -0600)
Weatherford | Change Station
CLOSE
Current Station
Airport
Location: Weatherford,
Elevation: 1604 ft
Nearby Weather Stations

Elev 1604 ft 35.54 °N, 98.67 °W | Updated 23 minutes ago

Overcast
Overcast
45 °F
Feels Like 37 °F
N
16
Wind Variable Wind from SSE
Gusts 24 mph

Today
High -- | Low -- °F
--% Chance of Precip.
Yesterday
High -- | Low -- °F
Precip. -- in
7:40 AM 5:25 PM
New Moon, 0% visible
Pressure 29.61 in
Visibility 7.0 miles
Clouds Overcast 800 ft
Windchill 37 °F
Dew Point 43 °F
Humidity 93%
Rainfall 0.00 in
Snow Depth Not available.
UV 0 out of 12
Pollen 8.10 out of 12
Air Quality Not available.
Flu Activity Not available.
METAR KOJA 220415Z AUTO 16014G21KT 7SM OVC008 07/06 A2961 RMK AO2

More Conditions Fewer Conditions

Pressure 29.61 in
Visibility 7.0 miles
Clouds Overcast 800 ft
Windchill 37 °F
Dew Point 43 °F
Humidity 93%
Rainfall 0.00 in
Snow Depth Not available.
UV 0 out of 12
Pollen 8.10 out of 12
Air Quality Not available.
Flu Activity Not available.
METAR KOJA 220415Z AUTO 16014G21KT 7SM OVC008 07/06 A2961 RMK AO2

More Conditions Fewer Conditions

10-Day Weather Forecast

Almanac

Astronomy

Dec. 21, 2014 Rise Set
Actual Time
Civil Twilight
Nautical Twilight
Astronomical Twilight
Moon
Length of Visible Light
Length of Day
Tomorrow will be .
, % of the Moon is Illuminated

Today's Extremes

State Highs State Lows

Community

WunderPhotos

Upload Photos

1,779,540 photos uploaded!

WunderBlogs® & News

Nearby

Air Quality

  Air Quality AQ Index Pollutant
Not available.

Snow Depth

Station Depth Elevation

Earthquake Activity

City Distance Mag. Time & Date
Minimum magnitude displayed is 2.5.

Coastal Water Temperatures

Place Temperature

Nearby Weather Stations